M V Legend II — HP5804 — position and weather

sailwx.info

Track history (hours):
 
Tides and Currents Weather Stations Pressure Air Temp Water Temp Dewpoint Dewpoint Depression Visibility Wind Speed Wind Dir Waves Ship Positions

M V Legend II

Last reported at 2017-Nov-19 09:27 UTC. Time now 2017-Nov-21 19:01 UTC.
Position N 25°39' W 079°36'.

Length 49 m.

MMSI: 370375000.

Date/timePositionNaut miles runAvg speedWind from/ knotsBaromVisibWave heightAir tempDewpointWater temp
2017-Nov-19 09:27N 25°39' W 079°36'4 8.1
2017-Nov-19 09:00N 25°40' W 079°40'4 8.0
2017-Nov-19 08:30N 25°41' W 079°44'4 7.9
2017-Nov-19 08:00N 25°42' W 079°48'4 7.9
2017-Nov-19 07:30N 25°42' W 079°53'4 7.9
2017-Nov-19 07:00N 25°43' W 079°57'4 7.3
2017-Nov-19 06:30N 25°45' W 080°01'4 8.3
2017-Nov-19 06:00N 25°46' W 080°05'5 9.6
2017-Nov-19 05:30N 25°46' W 080°10'2 3.4
2017-Nov-19 05:00N 25°47' W 080°12'2 3.6
2017-Nov-19 04:30N 25°47' W 080°14'1 1.9
2017-Nov-19 04:00N 25°48' W 080°15'0 0.0
2017-Nov-19 03:30N 25°48' W 080°15'0 0.0
2017-Nov-19 03:00N 25°48' W 080°15'0 0.0
2017-Nov-19 02:30N 25°48' W 080°15'0 0.0
2017-Nov-19 02:00N 25°48' W 080°15'0 0.0
2017-Nov-19 01:30N 25°48' W 080°15'0 0.0
2017-Nov-19 01:00N 25°48' W 080°15'0 0.0
2017-Nov-19 00:30N 25°48' W 080°15'0 0.0
2017-Nov-19 00:00N 25°48' W 080°15'0 0.0
2017-Nov-18 23:30N 25°48' W 080°15'0 0.0
2017-Nov-18 23:00N 25°48' W 080°15'0 0.0
2017-Nov-18 22:30N 25°48' W 080°15'0 0.0
2017-Nov-18 22:00N 25°48' W 080°15'0 0.0
2017-Nov-18 21:30N 25°48' W 080°15'0 0.0
2017-Nov-18 21:00N 25°48' W 080°15'0 0.0
2017-Nov-18 20:30N 25°48' W 080°15'0 0.0
2017-Nov-18 20:00N 25°48' W 080°15'0 0.0
2017-Nov-18 19:30N 25°48' W 080°15'0 0.0
2017-Nov-18 19:00N 25°48' W 080°15'0 0.0
2017-Nov-18 18:30N 25°48' W 080°15'0 0.0
2017-Nov-18 18:00N 25°48' W 080°15'0 0.0
2017-Nov-18 17:30N 25°48' W 080°15'0 0.0
2017-Nov-18 17:00N 25°48' W 080°15'0 0.0
2017-Nov-18 16:30N 25°48' W 080°15'0 0.0
2017-Nov-18 16:00N 25°48' W 080°15'0 0.0
2017-Nov-18 15:30N 25°48' W 080°15'0 0.0
2017-Nov-18 15:00N 25°48' W 080°15'0 0.0
2017-Nov-18 14:30N 25°48' W 080°15'0 0.0
2017-Nov-18 14:00N 25°48' W 080°15'0 0.0
2017-Nov-18 13:30N 25°48' W 080°15'0 0.0
2017-Nov-18 13:00N 25°48' W 080°15'0 0.0
2017-Nov-18 12:30N 25°48' W 080°15'0 0.0
2017-Nov-18 12:00N 25°48' W 080°15'0 0.0
2017-Nov-18 11:30N 25°48' W 080°15'0 0.0
2017-Nov-18 11:00N 25°48' W 080°15'1 1.2
2017-Nov-18 10:30N 25°48' W 080°14'2 3.1
2017-Nov-18 10:00N 25°47' W 080°13'1 2.8
2017-Nov-18 09:31N 25°46' W 080°11'1 1.6
2017-Nov-18 09:00N 25°46' W 080°11'1 2.6
2017-Nov-18 08:30N 25°46' W 080°09'3 6.2
2017-Nov-18 08:00N 25°46' W 080°06'4 7.9
2017-Nov-18 07:30N 25°47' W 080°02'4 7.4
2017-Nov-18 07:00N 25°47' W 079°57'3 6.8
2017-Nov-18 06:30N 25°47' W 079°54'3 6.5
2017-Nov-18 06:00N 25°48' W 079°50'3 6.6
2017-Nov-18 05:30N 25°48' W 079°46'4 7.0
2017-Nov-18 05:00N 25°48' W 079°42'4 7.2
2017-Nov-18 04:29N 25°49' W 079°38'4 7.3
2017-Nov-18 03:59N 25°49' W 079°34'  
2017-Nov-14 11:45N 25°37' W 079°29'2 6.2
2017-Nov-14 11:29N 25°36' W 079°31'3 5.2
2017-Nov-14 10:59N 25°36' W 079°34'3 6.4
2017-Nov-14 10:30N 25°38' W 079°37'3 6.4
2017-Nov-14 10:00N 25°40' W 079°40'3 6.3
2017-Nov-14 09:30N 25°41' W 079°43'3 6.1
2017-Nov-14 09:00N 25°43' W 079°46'3 6.1
2017-Nov-14 08:30N 25°44' W 079°49'3 5.6
2017-Nov-14 08:00N 25°45' W 079°52'3 6.4
2017-Nov-14 07:30N 25°45' W 079°55'3 6.4
2017-Nov-14 07:01N 25°45' W 079°59'3 6.3
2017-Nov-14 06:30N 25°45' W 080°02'3 7.0
2017-Nov-14 06:00N 25°46' W 080°06'4 7.6
2017-Nov-14 05:30N 25°46' W 080°10'2 3.5
2017-Nov-14 05:00N 25°46' W 080°12'2 3.5
2017-Nov-14 04:30N 25°47' W 080°14'1 2.6
2017-Nov-14 04:00N 25°48' W 080°15'0 0.0
2017-Nov-14 03:30N 25°48' W 080°15'0 0.0
2017-Nov-14 03:00N 25°48' W 080°15'0 0.0
2017-Nov-14 02:30N 25°48' W 080°15'0 0.0
2017-Nov-14 02:00N 25°48' W 080°15'0 0.0
2017-Nov-14 01:30N 25°48' W 080°15'0 0.0
2017-Nov-14 01:00N 25°48' W 080°15'0 0.0
2017-Nov-14 00:30N 25°48' W 080°15'0 0.0
2017-Nov-14 00:00N 25°48' W 080°15'0 0.0
2017-Nov-13 23:30N 25°48' W 080°15'0 0.0
2017-Nov-13 23:00N 25°48' W 080°15'0 0.0
2017-Nov-13 22:30N 25°48' W 080°15'0 0.0
2017-Nov-13 22:00N 25°48' W 080°15'0 0.0
2017-Nov-13 02:00N 25°48' W 080°15'0 0.0
2017-Nov-13 01:30N 25°48' W 080°15'0 0.0
2017-Nov-13 01:00N 25°48' W 080°15'0 0.0
2017-Nov-13 00:30N 25°48' W 080°15'0 0.0
2017-Nov-13 00:00N 25°48' W 080°15'0 0.0
2017-Nov-12 23:30N 25°48' W 080°15'0 0.0
2017-Nov-12 23:00N 25°48' W 080°15'0 0.0
2017-Nov-12 22:30N 25°48' W 080°15'0 0.0
2017-Nov-12 22:00N 25°48' W 080°15'0 0.0
2017-Nov-12 21:30N 25°48' W 080°15'0 0.0
2017-Nov-12 21:00N 25°48' W 080°15'0 0.0
2017-Nov-12 20:30N 25°48' W 080°15'0 0.0
2017-Nov-12 20:01N 25°48' W 080°15'0 0.0
2017-Nov-12 19:30N 25°48' W 080°15'0 0.0
2017-Nov-12 19:00N 25°48' W 080°15'0 0.0
2017-Nov-12 18:30N 25°48' W 080°15'0 0.0
2017-Nov-12 18:00N 25°48' W 080°15'0 0.0
2017-Nov-12 17:30N 25°48' W 080°15'0 0.0
2017-Nov-12 17:00N 25°48' W 080°15'0 0.0
2017-Nov-12 16:30N 25°48' W 080°15'0 0.0
2017-Nov-12 16:00N 25°48' W 080°15'0 0.0
2017-Nov-12 15:30N 25°48' W 080°15'0 0.0
2017-Nov-12 15:00N 25°48' W 080°15'0 0.0
2017-Nov-12 14:30N 25°48' W 080°15'0 0.0
2017-Nov-12 14:00N 25°48' W 080°15'0 0.0
2017-Nov-12 13:30N 25°48' W 080°15'0 0.0
2017-Nov-12 13:00N 25°48' W 080°15'0 0.0
2017-Nov-12 12:30N 25°48' W 080°15'0 0.0
2017-Nov-12 12:00N 25°48' W 080°15'0 0.0
2017-Nov-12 11:30N 25°48' W 080°15'0 0.0
2017-Nov-12 11:00N 25°48' W 080°15'0 0.0
2017-Nov-12 10:30N 25°48' W 080°15'0 0.0
2017-Nov-12 10:00N 25°48' W 080°15'0 0.0
2017-Nov-12 09:30N 25°48' W 080°15'0 0.0
2017-Nov-12 09:00N 25°48' W 080°15'0 0.0
2017-Nov-12 08:30N 25°48' W 080°15'0 0.0
2017-Nov-12 08:00N 25°48' W 080°15'0 0.0
2017-Nov-12 07:30N 25°48' W 080°15'0 0.0
2017-Nov-12 07:00N 25°48' W 080°15'0 0.0
2017-Nov-12 06:30N 25°48' W 080°15'0 0.0
2017-Nov-12 06:00N 25°48' W 080°15'0 0.0
2017-Nov-12 05:30N 25°48' W 080°15'0 0.0
2017-Nov-12 05:00N 25°48' W 080°15'0 0.0
2017-Nov-12 04:30N 25°48' W 080°15'0 0.0
2017-Nov-12 04:00N 25°48' W 080°15'0 0.0
2017-Nov-12 03:30N 25°48' W 080°15'0 0.0
2017-Nov-12 03:00N 25°48' W 080°15'0 0.0
2017-Nov-12 02:30N 25°48' W 080°15'0 0.0
2017-Nov-12 02:00N 25°48' W 080°15'0 0.0
2017-Nov-12 01:30N 25°48' W 080°15'0 0.0
2017-Nov-12 01:00N 25°48' W 080°15'0 0.0
2017-Nov-12 00:30N 25°48' W 080°15'0 0.0
2017-Nov-12 00:00N 25°48' W 080°15'0 0.0
2017-Nov-11 23:30N 25°48' W 080°15'0 0.0
2017-Nov-11 23:00N 25°48' W 080°15'0 0.0
2017-Nov-11 22:30N 25°48' W 080°15'0 0.0
2017-Nov-11 22:00N 25°48' W 080°15'0 0.0
2017-Nov-11 21:30N 25°48' W 080°15'0 0.0
2017-Nov-11 21:00N 25°48' W 080°15'0 0.0
2017-Nov-11 20:30N 25°48' W 080°15'0 0.0
2017-Nov-11 20:00N 25°48' W 080°15'0 0.0
2017-Nov-11 19:30N 25°48' W 080°15'0 0.0
2017-Nov-11 19:00N 25°48' W 080°15'0 0.0
2017-Nov-11 18:30N 25°48' W 080°15'0 0.0
2017-Nov-11 18:00N 25°48' W 080°15'0 0.0
2017-Nov-11 17:30N 25°48' W 080°15'0 0.0
2017-Nov-11 17:00N 25°48' W 080°15'0 0.0
2017-Nov-11 16:30N 25°48' W 080°15'0 0.0
2017-Nov-11 16:00N 25°48' W 080°15'0 0.0
2017-Nov-11 15:30N 25°48' W 080°15'0 0.0
2017-Nov-11 15:00N 25°48' W 080°15'0 0.0
2017-Nov-11 14:30N 25°48' W 080°15'0 0.0
2017-Nov-11 14:00N 25°48' W 080°15'0 0.0
2017-Nov-11 13:30N 25°48' W 080°15'0 0.0
2017-Nov-11 13:00N 25°48' W 080°15'0 0.0
2017-Nov-11 12:30N 25°48' W 080°15'0 0.0
2017-Nov-11 12:00N 25°48' W 080°15'0 0.0
2017-Nov-11 11:30N 25°48' W 080°15'0 0.0
2017-Nov-11 11:00N 25°48' W 080°15'0 0.0
2017-Nov-11 10:31N 25°48' W 080°15'0 0.0
2017-Nov-11 10:00N 25°48' W 080°15'0 0.0
2017-Nov-11 09:30N 25°48' W 080°15'0 0.0
2017-Nov-11 09:00N 25°48' W 080°15'0 0.0
2017-Nov-11 08:30N 25°48' W 080°15'0 0.0
2017-Nov-11 08:00N 25°48' W 080°15'0 0.0
2017-Nov-11 07:30N 25°48' W 080°15'0 0.0
2017-Nov-11 07:00N 25°48' W 080°15'0 0.0
2017-Nov-11 06:30N 25°48' W 080°15'0 0.0
2017-Nov-11 06:00N 25°48' W 080°15'0 0.0
2017-Nov-11 05:30N 25°48' W 080°15'0 0.0
2017-Nov-11 05:00N 25°48' W 080°15'0 0.0
2017-Nov-11 04:30N 25°48' W 080°15'0 0.1
2017-Nov-11 04:00N 25°48' W 080°15'1 1.6
2017-Nov-11 03:30N 25°47' W 080°14'1 2.1
2017-Nov-11 03:00N 25°47' W 080°13'1 2.4
2017-Nov-11 02:30N 25°46' W 080°12'1 1.9
2017-Nov-11 02:00N 25°46' W 080°11'1 2.4
2017-Nov-11 01:30N 25°46' W 080°10'4 7.9
2017-Nov-11 01:00N 25°46' W 080°05'4 7.8
2017-Nov-11 00:30N 25°46' W 080°01'2 4.7
2017-Nov-11 00:00N 25°46' W 079°58'3 6.0
2017-Nov-10 23:30N 25°45' W 079°55'4 7.4
2017-Nov-10 23:00N 25°45' W 079°51'2 3.8
2017-Nov-10 22:30N 25°45' W 079°49'2 3.5
2017-Nov-10 22:00N 25°45' W 079°47'2 3.8
2017-Nov-10 21:30N 25°45' W 079°45'2 3.8
2017-Nov-10 21:00N 25°44' W 079°43'2 3.9
2017-Nov-10 20:31N 25°44' W 079°41'2 4.1
2017-Nov-10 19:59N 25°44' W 079°38'2 4.2
2017-Nov-10 19:30N 25°44' W 079°36'2 4.3
2017-Nov-10 19:00N 25°44' W 079°34'2 4.4
2017-Nov-10 18:27N 25°44' W 079°31'4 8.2
2017-Nov-10 17:59N 25°43' W 079°27'510.0
2017-Nov-10 17:27N 25°43' W 079°21'3 5.6
2017-Nov-10 17:00N 25°43' W 079°18'0 0.0
2017-Nov-10 16:29N 25°43' W 079°18'2 0.5
2017-Nov-10 11:56N 25°45' W 079°18'0 0.0
2017-Nov-10 11:24N 25°45' W 079°18'0 0.0
2017-Nov-10 11:00N 25°45' W 079°18'0 0.0
2017-Nov-10 10:24N 25°45' W 079°18'0 0.0
2017-Nov-10 10:00N 25°45' W 079°18'0 0.0
2017-Nov-10 09:30N 25°45' W 079°18'20 1.0
2017-Nov-09 13:41N 25°34' W 079°37'1 8.2
2017-Nov-09 13:30N 25°35' W 079°39'4 8.0
2017-Nov-09 13:00N 25°36' W 079°43'4 7.7
2017-Nov-09 12:30N 25°38' W 079°47'4 7.7
2017-Nov-09 12:00N 25°40' W 079°50'4 7.7
2017-Nov-09 11:30N 25°41' W 079°54'4 7.9
2017-Nov-09 11:00N 25°43' W 079°58'4 8.2
2017-Nov-09 10:30N 25°44' W 080°02'4 9.0
2017-Nov-09 10:00N 25°46' W 080°07'3 6.7
2017-Nov-09 09:30N 25°46' W 080°11'  
Track history (hours):
 
Tides and Currents Weather Stations Pressure Air Temp Water Temp Dewpoint Dewpoint Depression Visibility Wind Speed Wind Dir Waves Ship Positions

M V Legend II

Last reported at 2017-Nov-19 09:27 UTC. Time now 2017-Nov-21 19:01 UTC.
Position N 25°39' W 079°36'.

Length 49 m.

MMSI: 370375000.

Date/timePositionNaut miles runAvg speedWind from/ knotsBaromVisibWave heightAir tempDewpointWater temp
2017-Nov-19 09:27N 25°39' W 079°36'4 8.1
2017-Nov-19 09:00N 25°40' W 079°40'4 8.0
2017-Nov-19 08:30N 25°41' W 079°44'4 7.9
2017-Nov-19 08:00N 25°42' W 079°48'4 7.9
2017-Nov-19 07:30N 25°42' W 079°53'4 7.9
2017-Nov-19 07:00N 25°43' W 079°57'4 7.3
2017-Nov-19 06:30N 25°45' W 080°01'4 8.3
2017-Nov-19 06:00N 25°46' W 080°05'5 9.6
2017-Nov-19 05:30N 25°46' W 080°10'2 3.4
2017-Nov-19 05:00N 25°47' W 080°12'2 3.6
2017-Nov-19 04:30N 25°47' W 080°14'1 1.9
2017-Nov-19 04:00N 25°48' W 080°15'0 0.0
2017-Nov-19 03:30N 25°48' W 080°15'0 0.0
2017-Nov-19 03:00N 25°48' W 080°15'0 0.0
2017-Nov-19 02:30N 25°48' W 080°15'0 0.0
2017-Nov-19 02:00N 25°48' W 080°15'0 0.0
2017-Nov-19 01:30N 25°48' W 080°15'0 0.0
2017-Nov-19 01:00N 25°48' W 080°15'0 0.0
2017-Nov-19 00:30N 25°48' W 080°15'0 0.0
2017-Nov-19 00:00N 25°48' W 080°15'0 0.0
2017-Nov-18 23:30N 25°48' W 080°15'0 0.0
2017-Nov-18 23:00N 25°48' W 080°15'0 0.0
2017-Nov-18 22:30N 25°48' W 080°15'0 0.0
2017-Nov-18 22:00N 25°48' W 080°15'0 0.0
2017-Nov-18 21:30N 25°48' W 080°15'0 0.0
2017-Nov-18 21:00N 25°48' W 080°15'0 0.0
2017-Nov-18 20:30N 25°48' W 080°15'0 0.0
2017-Nov-18 20:00N 25°48' W 080°15'0 0.0
2017-Nov-18 19:30N 25°48' W 080°15'0 0.0
2017-Nov-18 19:00N 25°48' W 080°15'0 0.0
2017-Nov-18 18:30N 25°48' W 080°15'0 0.0
2017-Nov-18 18:00N 25°48' W 080°15'0 0.0
2017-Nov-18 17:30N 25°48' W 080°15'0 0.0
2017-Nov-18 17:00N 25°48' W 080°15'0 0.0
2017-Nov-18 16:30N 25°48' W 080°15'0 0.0
2017-Nov-18 16:00N 25°48' W 080°15'0 0.0
2017-Nov-18 15:30N 25°48' W 080°15'0 0.0
2017-Nov-18 15:00N 25°48' W 080°15'0 0.0
2017-Nov-18 14:30N 25°48' W 080°15'0 0.0
2017-Nov-18 14:00N 25°48' W 080°15'0 0.0
2017-Nov-18 13:30N 25°48' W 080°15'0 0.0
2017-Nov-18 13:00N 25°48' W 080°15'0 0.0
2017-Nov-18 12:30N 25°48' W 080°15'0 0.0
2017-Nov-18 12:00N 25°48' W 080°15'0 0.0
2017-Nov-18 11:30N 25°48' W 080°15'0 0.0
2017-Nov-18 11:00N 25°48' W 080°15'1 1.2
2017-Nov-18 10:30N 25°48' W 080°14'2 3.1
2017-Nov-18 10:00N 25°47' W 080°13'1 2.8
2017-Nov-18 09:31N 25°46' W 080°11'1 1.6
2017-Nov-18 09:00N 25°46' W 080°11'1 2.6
2017-Nov-18 08:30N 25°46' W 080°09'3 6.2
2017-Nov-18 08:00N 25°46' W 080°06'4 7.9
2017-Nov-18 07:30N 25°47' W 080°02'4 7.4
2017-Nov-18 07:00N 25°47' W 079°57'3 6.8
2017-Nov-18 06:30N 25°47' W 079°54'3 6.5
2017-Nov-18 06:00N 25°48' W 079°50'3 6.6
2017-Nov-18 05:30N 25°48' W 079°46'4 7.0
2017-Nov-18 05:00N 25°48' W 079°42'4 7.2
2017-Nov-18 04:29N 25°49' W 079°38'4 7.3
2017-Nov-18 03:59N 25°49' W 079°34'  
2017-Nov-14 11:45N 25°37' W 079°29'2 6.2
2017-Nov-14 11:29N 25°36' W 079°31'3 5.2
2017-Nov-14 10:59N 25°36' W 079°34'3 6.4
2017-Nov-14 10:30N 25°38' W 079°37'3 6.4
2017-Nov-14 10:00N 25°40' W 079°40'3 6.3
2017-Nov-14 09:30N 25°41' W 079°43'3 6.1
2017-Nov-14 09:00N 25°43' W 079°46'3 6.1
2017-Nov-14 08:30N 25°44' W 079°49'3 5.6
2017-Nov-14 08:00N 25°45' W 079°52'3 6.4
2017-Nov-14 07:30N 25°45' W 079°55'3 6.4
2017-Nov-14 07:01N 25°45' W 079°59'3 6.3
2017-Nov-14 06:30N 25°45' W 080°02'3 7.0
2017-Nov-14 06:00N 25°46' W 080°06'4 7.6
2017-Nov-14 05:30N 25°46' W 080°10'2 3.5
2017-Nov-14 05:00N 25°46' W 080°12'2 3.5
2017-Nov-14 04:30N 25°47' W 080°14'1 2.6
2017-Nov-14 04:00N 25°48' W 080°15'0 0.0
2017-Nov-14 03:30N 25°48' W 080°15'0 0.0
2017-Nov-14 03:00N 25°48' W 080°15'0 0.0
2017-Nov-14 02:30N 25°48' W 080°15'0 0.0
2017-Nov-14 02:00N 25°48' W 080°15'0 0.0
2017-Nov-14 01:30N 25°48' W 080°15'0 0.0
2017-Nov-14 01:00N 25°48' W 080°15'0 0.0
2017-Nov-14 00:30N 25°48' W 080°15'0 0.0
2017-Nov-14 00:00N 25°48' W 080°15'0 0.0
2017-Nov-13 23:30N 25°48' W 080°15'0 0.0
2017-Nov-13 23:00N 25°48' W 080°15'0 0.0
2017-Nov-13 22:30N 25°48' W 080°15'0 0.0
2017-Nov-13 22:00N 25°48' W 080°15'0 0.0
2017-Nov-13 02:00N 25°48' W 080°15'0 0.0
2017-Nov-13 01:30N 25°48' W 080°15'0 0.0
2017-Nov-13 01:00N 25°48' W 080°15'0 0.0
2017-Nov-13 00:30N 25°48' W 080°15'0 0.0
2017-Nov-13 00:00N 25°48' W 080°15'0 0.0
2017-Nov-12 23:30N 25°48' W 080°15'0 0.0
2017-Nov-12 23:00N 25°48' W 080°15'0 0.0
2017-Nov-12 22:30N 25°48' W 080°15'0 0.0
2017-Nov-12 22:00N 25°48' W 080°15'0 0.0
2017-Nov-12 21:30N 25°48' W 080°15'0 0.0
2017-Nov-12 21:00N 25°48' W 080°15'0 0.0
2017-Nov-12 20:30N 25°48' W 080°15'0 0.0
2017-Nov-12 20:01N 25°48' W 080°15'0 0.0
2017-Nov-12 19:30N 25°48' W 080°15'0 0.0
2017-Nov-12 19:00N 25°48' W 080°15'0 0.0
2017-Nov-12 18:30N 25°48' W 080°15'0 0.0
2017-Nov-12 18:00N 25°48' W 080°15'0 0.0
2017-Nov-12 17:30N 25°48' W 080°15'0 0.0
2017-Nov-12 17:00N 25°48' W 080°15'0 0.0
2017-Nov-12 16:30N 25°48' W 080°15'0 0.0
2017-Nov-12 16:00N 25°48' W 080°15'0 0.0
2017-Nov-12 15:30N 25°48' W 080°15'0 0.0
2017-Nov-12 15:00N 25°48' W 080°15'0 0.0
2017-Nov-12 14:30N 25°48' W 080°15'0 0.0
2017-Nov-12 14:00N 25°48' W 080°15'0 0.0
2017-Nov-12 13:30N 25°48' W 080°15'0 0.0
2017-Nov-12 13:00N 25°48' W 080°15'0 0.0
2017-Nov-12 12:30N 25°48' W 080°15'0 0.0
2017-Nov-12 12:00N 25°48' W 080°15'0 0.0
2017-Nov-12 11:30N 25°48' W 080°15'0 0.0
2017-Nov-12 11:00N 25°48' W 080°15'0 0.0
2017-Nov-12 10:30N 25°48' W 080°15'0 0.0
2017-Nov-12 10:00N 25°48' W 080°15'0 0.0
2017-Nov-12 09:30N 25°48' W 080°15'0 0.0
2017-Nov-12 09:00N 25°48' W 080°15'0 0.0
2017-Nov-12 08:30N 25°48' W 080°15'0 0.0
2017-Nov-12 08:00N 25°48' W 080°15'0 0.0
2017-Nov-12 07:30N 25°48' W 080°15'0 0.0
2017-Nov-12 07:00N 25°48' W 080°15'0 0.0
2017-Nov-12 06:30N 25°48' W 080°15'0 0.0
2017-Nov-12 06:00N 25°48' W 080°15'0 0.0
2017-Nov-12 05:30N 25°48' W 080°15'0 0.0
2017-Nov-12 05:00N 25°48' W 080°15'0 0.0
2017-Nov-12 04:30N 25°48' W 080°15'0 0.0
2017-Nov-12 04:00N 25°48' W 080°15'0 0.0
2017-Nov-12 03:30N 25°48' W 080°15'0 0.0
2017-Nov-12 03:00N 25°48' W 080°15'0 0.0
2017-Nov-12 02:30N 25°48' W 080°15'0 0.0
2017-Nov-12 02:00N 25°48' W 080°15'0 0.0
2017-Nov-12 01:30N 25°48' W 080°15'0 0.0
2017-Nov-12 01:00N 25°48' W 080°15'0 0.0
2017-Nov-12 00:30N 25°48' W 080°15'0 0.0
2017-Nov-12 00:00N 25°48' W 080°15'0 0.0
2017-Nov-11 23:30N 25°48' W 080°15'0 0.0
2017-Nov-11 23:00N 25°48' W 080°15'0 0.0
2017-Nov-11 22:30N 25°48' W 080°15'0 0.0
2017-Nov-11 22:00N 25°48' W 080°15'0 0.0
2017-Nov-11 21:30N 25°48' W 080°15'0 0.0
2017-Nov-11 21:00N 25°48' W 080°15'0 0.0
2017-Nov-11 20:30N 25°48' W 080°15'0 0.0
2017-Nov-11 20:00N 25°48' W 080°15'0 0.0
2017-Nov-11 19:30N 25°48' W 080°15'0 0.0
2017-Nov-11 19:00N 25°48' W 080°15'0 0.0
2017-Nov-11 18:30N 25°48' W 080°15'0 0.0
2017-Nov-11 18:00N 25°48' W 080°15'0 0.0
2017-Nov-11 17:30N 25°48' W 080°15'0 0.0
2017-Nov-11 17:00N 25°48' W 080°15'0 0.0
2017-Nov-11 16:30N 25°48' W 080°15'0 0.0
2017-Nov-11 16:00N 25°48' W 080°15'0 0.0
2017-Nov-11 15:30N 25°48' W 080°15'0 0.0
2017-Nov-11 15:00N 25°48' W 080°15'0 0.0
2017-Nov-11 14:30N 25°48' W 080°15'0 0.0
2017-Nov-11 14:00N 25°48' W 080°15'0 0.0
2017-Nov-11 13:30N 25°48' W 080°15'0 0.0
2017-Nov-11 13:00N 25°48' W 080°15'0 0.0
2017-Nov-11 12:30N 25°48' W 080°15'0 0.0
2017-Nov-11 12:00N 25°48' W 080°15'0 0.0
2017-Nov-11 11:30N 25°48' W 080°15'0 0.0
2017-Nov-11 11:00N 25°48' W 080°15'0 0.0
2017-Nov-11 10:31N 25°48' W 080°15'0 0.0
2017-Nov-11 10:00N 25°48' W 080°15'0 0.0
2017-Nov-11 09:30N 25°48' W 080°15'0 0.0
2017-Nov-11 09:00N 25°48' W 080°15'0 0.0
2017-Nov-11 08:30N 25°48' W 080°15'0 0.0
2017-Nov-11 08:00N 25°48' W 080°15'0 0.0
2017-Nov-11 07:30N 25°48' W 080°15'0 0.0
2017-Nov-11 07:00N 25°48' W 080°15'0 0.0
2017-Nov-11 06:30N 25°48' W 080°15'0 0.0
2017-Nov-11 06:00N 25°48' W 080°15'0 0.0
2017-Nov-11 05:30N 25°48' W 080°15'0 0.0
2017-Nov-11 05:00N 25°48' W 080°15'0 0.0
2017-Nov-11 04:30N 25°48' W 080°15'0 0.1
2017-Nov-11 04:00N 25°48' W 080°15'1 1.6
2017-Nov-11 03:30N 25°47' W 080°14'1 2.1
2017-Nov-11 03:00N 25°47' W 080°13'1 2.4
2017-Nov-11 02:30N 25°46' W 080°12'1 1.9
2017-Nov-11 02:00N 25°46' W 080°11'1 2.4
2017-Nov-11 01:30N 25°46' W 080°10'4 7.9
2017-Nov-11 01:00N 25°46' W 080°05'4 7.8
2017-Nov-11 00:30N 25°46' W 080°01'2 4.7
2017-Nov-11 00:00N 25°46' W 079°58'3 6.0
2017-Nov-10 23:30N 25°45' W 079°55'4 7.4
2017-Nov-10 23:00N 25°45' W 079°51'2 3.8
2017-Nov-10 22:30N 25°45' W 079°49'2 3.5
2017-Nov-10 22:00N 25°45' W 079°47'2 3.8
2017-Nov-10 21:30N 25°45' W 079°45'2 3.8
2017-Nov-10 21:00N 25°44' W 079°43'2 3.9
2017-Nov-10 20:31N 25°44' W 079°41'2 4.1
2017-Nov-10 19:59N 25°44' W 079°38'2 4.2
2017-Nov-10 19:30N 25°44' W 079°36'2 4.3
2017-Nov-10 19:00N 25°44' W 079°34'2 4.4
2017-Nov-10 18:27N 25°44' W 079°31'4 8.2
2017-Nov-10 17:59N 25°43' W 079°27'510.0
2017-Nov-10 17:27N 25°43' W 079°21'3 5.6
2017-Nov-10 17:00N 25°43' W 079°18'0 0.0
2017-Nov-10 16:29N 25°43' W 079°18'2 0.5
2017-Nov-10 11:56N 25°45' W 079°18'0 0.0
2017-Nov-10 11:24N 25°45' W 079°18'0 0.0
2017-Nov-10 11:00N 25°45' W 079°18'0 0.0
2017-Nov-10 10:24N 25°45' W 079°18'0 0.0
2017-Nov-10 10:00N 25°45' W 079°18'0 0.0
2017-Nov-10 09:30N 25°45' W 079°18'20 1.0
2017-Nov-09 13:41N 25°34' W 079°37'1 8.2
2017-Nov-09 13:30N 25°35' W 079°39'4 8.0
2017-Nov-09 13:00N 25°36' W 079°43'4 7.7
2017-Nov-09 12:30N 25°38' W 079°47'4 7.7
2017-Nov-09 12:00N 25°40' W 079°50'4 7.7
2017-Nov-09 11:30N 25°41' W 079°54'4 7.9
2017-Nov-09 11:00N 25°43' W 079°58'4 8.2
2017-Nov-09 10:30N 25°44' W 080°02'4 9.0
2017-Nov-09 10:00N 25°46' W 080°07'3 6.7
2017-Nov-09 09:30N 25°46' W 080°11'  

Dump ship's entire track history